createdAt,value
2018-03-31T00:00:48.560Z,5.97
2018-03-31T00:03:15.817Z,5.70
2018-03-31T00:05:43.061Z,4.67
2018-03-31T00:08:10.313Z,4.50
2018-03-31T00:10:37.567Z,4.73
2018-03-31T00:13:04.817Z,3.87
2018-03-31T00:15:32.023Z,4.00
2018-03-31T00:17:59.316Z,4.40
2018-03-31T00:20:26.581Z,5.30
2018-03-31T00:22:53.724Z,4.20
2018-03-31T00:25:20.875Z,5.70
2018-03-31T00:27:48.128Z,6.60
2018-03-31T00:30:15.381Z,6.23
2018-03-31T00:32:42.636Z,5.70
2018-03-31T00:35:09.891Z,6.37
2018-03-31T00:37:37.139Z,5.73
2018-03-31T00:40:04.288Z,7.07
2018-03-31T00:42:31.437Z,6.17
2018-03-31T00:44:58.694Z,6.63
2018-03-31T00:47:25.942Z,6.17
2018-03-31T00:49:53.305Z,6.50
2018-03-31T00:52:20.446Z,7.00
2018-03-31T00:54:47.668Z,6.20
2018-03-31T00:57:14.850Z,6.20
2018-03-31T00:59:41.966Z,7.20
2018-03-31T01:02:09.149Z,7.20
2018-03-31T01:04:36.400Z,6.47
2018-03-31T01:07:03.653Z,6.70
2018-03-31T01:09:30.906Z,7.10
2018-03-31T01:11:58.158Z,7.70
2018-03-31T01:14:25.308Z,7.37
2018-03-31T01:16:52.566Z,6.90
2018-03-31T01:19:19.816Z,7.00
2018-03-31T01:21:47.065Z,7.63
2018-03-31T01:24:14.318Z,7.10
2018-03-31T01:26:41.576Z,7.60
2018-03-31T01:29:08.726Z,8.87
2018-03-31T01:31:35.973Z,8.53
2018-03-31T01:34:03.225Z,9.63
2018-03-31T01:36:30.477Z,8.40
2018-03-31T01:38:57.627Z,8.67
2018-03-31T01:41:24.880Z,7.70
2018-03-31T01:43:52.132Z,8.00
2018-03-31T01:46:19.283Z,8.47
2018-03-31T01:48:46.538Z,8.50
2018-03-31T01:51:13.684Z,8.47
2018-03-31T01:53:40.886Z,7.70
2018-03-31T01:56:08.196Z,8.00
2018-03-31T01:58:35.446Z,7.50
2018-03-31T02:01:02.590Z,8.97
2018-03-31T02:03:29.844Z,8.00
2018-03-31T02:05:57.096Z,8.20
2018-03-31T02:08:24.349Z,8.07
2018-03-31T02:10:51.602Z,8.40
2018-03-31T02:13:18.863Z,8.10
2018-03-31T02:15:46.106Z,7.50
2018-03-31T02:18:13.357Z,7.40
2018-03-31T02:20:40.609Z,8.20
2018-03-31T02:23:07.863Z,7.90
2018-03-31T02:25:35.217Z,7.67
2018-03-31T02:28:02.470Z,8.70
2018-03-31T02:30:29.737Z,8.90
2018-03-31T02:32:56.936Z,7.50
2018-03-31T02:35:24.133Z,7.40
2018-03-31T02:37:51.377Z,7.17
2018-03-31T02:40:18.629Z,6.20
2018-03-31T02:42:45.884Z,6.10
2018-03-31T02:45:13.036Z,6.13
2018-03-31T02:47:40.244Z,5.70
2018-03-31T02:50:07.434Z,6.40
2018-03-31T02:52:34.594Z,6.30
2018-03-31T02:55:01.735Z,7.50
2018-03-31T02:57:28.886Z,6.63
2018-03-31T02:59:56.081Z,7.10
2018-03-31T03:02:23.185Z,7.40
2018-03-31T03:04:50.436Z,6.97
2018-03-31T03:07:17.633Z,6.80
2018-03-31T03:09:44.839Z,6.13
2018-03-31T03:12:11.988Z,6.90
2018-03-31T03:14:39.241Z,8.20
2018-03-31T03:17:06.441Z,7.37
2018-03-31T03:19:33.643Z,6.37
2018-03-31T03:22:01.000Z,6.73
2018-03-31T03:24:28.256Z,7.17
2018-03-31T03:26:55.505Z,6.13
2018-03-31T03:29:22.757Z,7.40
2018-03-31T03:31:50.008Z,8.47
2018-03-31T03:34:17.267Z,7.80
2018-03-31T03:36:44.517Z,7.80
2018-03-31T03:39:11.772Z,7.37
2018-03-31T03:41:39.120Z,9.20
2018-03-31T03:44:06.376Z,7.87
2018-03-31T03:46:33.512Z,8.60
2018-03-31T03:49:00.789Z,7.60
2018-03-31T03:51:27.926Z,8.33
2018-03-31T03:53:55.074Z,8.60
2018-03-31T03:56:22.224Z,8.60
2018-03-31T03:58:49.395Z,9.37
2018-03-31T04:01:16.525Z,8.53
2018-03-31T04:03:43.776Z,8.97
2018-03-31T04:06:10.970Z,8.97
2018-03-31T04:08:38.282Z,10.10
2018-03-31T04:11:05.544Z,9.10
2018-03-31T04:13:32.683Z,9.50
2018-03-31T04:15:59.836Z,8.60
2018-03-31T04:18:26.988Z,8.37
2018-03-31T04:20:54.125Z,8.60
2018-03-31T04:23:21.284Z,9.60
2018-03-31T04:25:48.438Z,8.53
2018-03-31T04:28:15.585Z,8.50
2018-03-31T04:30:42.836Z,8.20
2018-03-31T04:33:09.989Z,7.77
2018-03-31T04:35:37.137Z,8.30
2018-03-31T04:38:04.286Z,7.83
2018-03-31T04:40:31.538Z,8.40
2018-03-31T04:42:58.792Z,8.93
2018-03-31T04:45:25.940Z,9.97
2018-03-31T04:47:53.082Z,8.70
2018-03-31T04:50:20.344Z,9.27
2018-03-31T04:52:47.499Z,8.40
2018-03-31T04:55:14.848Z,8.17
2018-03-31T04:57:41.998Z,8.87
2018-03-31T05:00:09.206Z,8.30
2018-03-31T05:02:36.402Z,8.70
2018-03-31T05:05:03.550Z,8.83
2018-03-31T05:07:30.803Z,8.43
2018-03-31T05:09:58.054Z,7.93
2018-03-31T05:12:25.204Z,7.93
2018-03-31T05:14:52.456Z,8.83
2018-03-31T05:17:19.717Z,8.70
2018-03-31T05:19:46.964Z,8.70
2018-03-31T05:22:14.213Z,8.40
2018-03-31T05:24:41.364Z,7.87
2018-03-31T05:27:08.514Z,8.10
2018-03-31T05:29:35.767Z,8.20
2018-03-31T05:32:02.918Z,8.00
2018-03-31T05:34:30.067Z,8.83
2018-03-31T05:36:57.423Z,9.27
2018-03-31T05:39:24.618Z,10.80
2018-03-31T05:41:51.823Z,9.37
2018-03-31T05:44:19.081Z,9.83
2018-03-31T05:46:46.268Z,9.03
2018-03-31T05:49:13.481Z,8.83
2018-03-31T05:51:40.616Z,8.80
2018-03-31T05:54:07.772Z,8.57
2018-03-31T05:56:35.030Z,8.87
2018-03-31T05:59:02.292Z,8.60
2018-03-31T06:01:29.498Z,7.93
2018-03-31T06:03:56.685Z,8.80
2018-03-31T06:06:23.996Z,8.83
2018-03-31T06:08:51.094Z,8.43
2018-03-31T06:11:24.382Z,9.10
2018-03-31T06:13:51.581Z,9.07
2018-03-31T06:16:18.889Z,9.10
2018-03-31T06:18:46.037Z,8.40
2018-03-31T06:21:13.191Z,8.60
2018-03-31T06:23:40.334Z,8.50
2018-03-31T06:26:07.588Z,8.80
2018-03-31T06:28:34.855Z,8.43
2018-03-31T06:31:02.052Z,9.67
2018-03-31T06:33:29.357Z,9.87
2018-03-31T06:35:56.503Z,7.73
2018-03-31T06:38:23.648Z,8.33
2018-03-31T06:40:50.803Z,8.43
2018-03-31T06:43:18.047Z,8.13
2018-03-31T06:45:45.239Z,8.20
2018-03-31T06:48:12.503Z,7.97
2018-03-31T06:50:39.702Z,8.40
2018-03-31T06:53:06.851Z,9.77
2018-03-31T06:55:34.053Z,10.87
2018-03-31T06:58:01.256Z,10.47
2018-03-31T07:00:28.410Z,9.57
2018-03-31T07:02:55.609Z,10.30
2018-03-31T07:05:22.869Z,9.80
2018-03-31T07:07:50.162Z,10.50
2018-03-31T07:10:17.418Z,9.47
2018-03-31T07:12:44.564Z,8.47
2018-03-31T07:15:11.816Z,8.43
2018-03-31T07:17:39.069Z,9.67
2018-03-31T07:20:06.321Z,8.70
2018-03-31T07:22:33.573Z,8.40
2018-03-31T07:25:00.826Z,7.70
2018-03-31T07:27:27.978Z,7.43
2018-03-31T07:29:55.120Z,6.50
2018-03-31T07:32:22.277Z,7.47
2018-03-31T07:34:49.529Z,8.17
2018-03-31T07:37:16.834Z,7.13
2018-03-31T07:39:44.033Z,7.77
2018-03-31T07:42:11.284Z,8.23
2018-03-31T07:44:38.537Z,7.67
2018-03-31T07:47:05.790Z,7.90
2018-03-31T07:49:33.042Z,7.03
2018-03-31T07:52:00.327Z,6.97
2018-03-31T07:54:27.502Z,7.17
2018-03-31T07:56:54.794Z,6.87
2018-03-31T07:59:21.948Z,7.40
2018-03-31T08:01:49.208Z,6.93
2018-03-31T08:04:16.352Z,6.40
2018-03-31T08:06:43.706Z,7.10
2018-03-31T08:09:10.959Z,7.37
2018-03-31T08:11:38.108Z,7.90
2018-03-31T08:14:05.361Z,6.67
2018-03-31T08:16:32.581Z,5.83
2018-03-31T08:18:59.753Z,5.70
2018-03-31T08:21:27.020Z,5.17
2018-03-31T08:23:54.167Z,5.67
2018-03-31T08:26:21.418Z,5.53
2018-03-31T08:28:48.797Z,6.00
2018-03-31T08:31:15.932Z,5.53
2018-03-31T08:33:43.072Z,5.57
2018-03-31T08:36:10.331Z,4.87
2018-03-31T08:38:37.474Z,5.37
2018-03-31T08:41:04.729Z,5.33
2018-03-31T08:43:31.980Z,4.87
2018-03-31T08:45:59.246Z,4.70
2018-03-31T08:48:26.442Z,4.93
2018-03-31T08:50:53.739Z,4.03
2018-03-31T08:53:20.884Z,4.77
2018-03-31T08:55:48.036Z,4.30
2018-03-31T08:58:15.236Z,3.87
2018-03-31T09:00:42.500Z,4.27
2018-03-31T09:03:09.691Z,4.07
2018-03-31T09:05:36.841Z,3.13
2018-03-31T09:08:04.059Z,2.20
2018-03-31T09:10:31.141Z,2.30
2018-03-31T09:12:58.398Z,3.20
2018-03-31T09:15:25.647Z,1.73
2018-03-31T09:17:52.797Z,2.00
2018-03-31T09:20:20.049Z,2.10
2018-03-31T09:22:47.300Z,1.70
2018-03-31T09:25:14.553Z,1.90
2018-03-31T09:27:41.806Z,2.20
2018-03-31T09:30:08.956Z,2.00
2018-03-31T09:32:36.167Z,2.10
2018-03-31T09:35:03.361Z,2.07
2018-03-31T09:37:30.561Z,2.80
2018-03-31T09:39:57.833Z,2.37
2018-03-31T09:42:25.017Z,3.20
2018-03-31T09:44:52.265Z,10.60
2018-03-31T09:47:19.403Z,2.93
2018-03-31T09:49:46.667Z,2.00
2018-03-31T09:52:13.922Z,1.60
2018-03-31T09:54:41.172Z,1.80
2018-03-31T09:57:08.425Z,1.80
2018-03-31T09:59:35.779Z,1.60
2018-03-31T10:02:03.033Z,1.30
2018-03-31T10:04:30.182Z,1.37
2018-03-31T10:06:57.434Z,1.20
2018-03-31T10:09:24.659Z,1.13
2018-03-31T10:11:51.944Z,1.40
2018-03-31T10:14:19.293Z,1.30
2018-03-31T10:16:46.444Z,1.70
2018-03-31T10:19:13.701Z,1.60
2018-03-31T10:21:40.915Z,1.70
2018-03-31T10:24:08.316Z,1.20
2018-03-31T10:26:35.556Z,1.07
2018-03-31T10:29:02.710Z,1.20
2018-03-31T10:31:29.856Z,1.07
2018-03-31T10:33:57.108Z,1.30
2018-03-31T10:36:24.365Z,0.97
2018-03-31T10:38:51.653Z,0.90
2018-03-31T10:41:18.871Z,1.10
2018-03-31T10:43:46.064Z,0.63
2018-03-31T10:46:13.156Z,0.70
2018-03-31T10:48:40.417Z,1.17
2018-03-31T10:51:07.568Z,1.30
2018-03-31T10:53:34.819Z,1.20
2018-03-31T10:56:02.073Z,1.23
2018-03-31T10:58:29.262Z,1.23
2018-03-31T11:00:56.528Z,1.13
2018-03-31T11:03:23.828Z,1.33
2018-03-31T11:05:51.187Z,1.10
2018-03-31T11:08:18.383Z,1.30
2018-03-31T11:10:45.588Z,1.10
2018-03-31T11:13:12.816Z,0.83
2018-03-31T11:15:40.090Z,0.97
2018-03-31T11:18:07.240Z,1.00
2018-03-31T11:20:34.493Z,1.13
2018-03-31T11:23:01.750Z,1.00
2018-03-31T11:25:28.950Z,1.00
2018-03-31T11:27:56.148Z,1.00
2018-03-31T11:30:23.401Z,0.70
2018-03-31T11:32:50.653Z,0.70
2018-03-31T11:35:17.904Z,1.10
2018-03-31T11:37:45.162Z,1.10
2018-03-31T11:40:12.409Z,1.03
2018-03-31T11:42:39.560Z,0.70
2018-03-31T11:45:06.714Z,0.90
2018-03-31T11:47:33.970Z,0.90
2018-03-31T11:50:01.112Z,1.10
2018-03-31T11:52:28.377Z,0.90
2018-03-31T11:54:55.616Z,1.10
2018-03-31T11:57:22.766Z,1.07
2018-03-31T11:59:49.905Z,1.07
2018-03-31T12:02:17.435Z,0.80
2018-03-31T12:04:44.730Z,0.97
2018-03-31T12:07:11.982Z,0.80
2018-03-31T12:09:39.119Z,0.80
2018-03-31T12:12:06.388Z,0.90
2018-03-31T12:14:33.528Z,1.00
2018-03-31T12:17:00.786Z,0.87
2018-03-31T12:19:28.038Z,0.77
2018-03-31T12:21:55.193Z,0.90
2018-03-31T12:24:22.440Z,0.90
2018-03-31T12:26:49.692Z,0.80
2018-03-31T12:29:16.950Z,0.90
2018-03-31T12:31:44.198Z,0.73
2018-03-31T12:34:11.450Z,0.80
2018-03-31T12:36:38.824Z,0.83
2018-03-31T12:39:06.009Z,0.90
2018-03-31T12:41:33.206Z,1.20
2018-03-31T12:44:00.560Z,0.80
2018-03-31T12:46:27.712Z,1.30
2018-03-31T12:48:54.964Z,1.13
2018-03-31T12:51:22.216Z,0.80
2018-03-31T12:53:49.572Z,0.87
2018-03-31T12:56:16.722Z,1.80
2018-03-31T12:58:43.872Z,0.80
2018-03-31T13:01:11.124Z,1.13
2018-03-31T13:03:38.280Z,0.80
2018-03-31T13:06:05.425Z,0.77
2018-03-31T13:08:32.604Z,1.50
2018-03-31T13:10:59.724Z,1.20
2018-03-31T13:13:26.976Z,1.00
2018-03-31T13:15:54.230Z,1.10
2018-03-31T13:18:21.486Z,1.30
2018-03-31T13:20:48.733Z,1.30
2018-03-31T13:23:15.941Z,1.30
2018-03-31T13:25:43.144Z,1.03
2018-03-31T13:28:10.349Z,1.40
2018-03-31T13:30:37.539Z,1.20
2018-03-31T13:33:04.734Z,0.80
2018-03-31T13:35:32.248Z,1.33
2018-03-31T13:37:59.608Z,1.20
2018-03-31T13:40:26.909Z,1.10
2018-03-31T13:42:54.212Z,1.10
2018-03-31T13:45:21.399Z,1.40
2018-03-31T13:47:48.563Z,1.33
2018-03-31T13:50:15.637Z,1.30
2018-03-31T13:52:42.812Z,1.50
2018-03-31T13:55:09.959Z,0.97
2018-03-31T13:57:37.866Z,1.10
2018-03-31T14:00:05.181Z,1.00
2018-03-31T14:02:32.484Z,1.20
2018-03-31T14:04:59.993Z,1.27
2018-03-31T14:07:27.252Z,1.50
2018-03-31T14:09:54.409Z,1.60
2018-03-31T14:12:21.660Z,1.00
2018-03-31T14:14:48.847Z,1.20
2018-03-31T14:17:16.113Z,0.90
2018-03-31T14:19:43.200Z,1.20
2018-03-31T14:22:10.398Z,0.93
2018-03-31T14:24:37.504Z,0.97
2018-03-31T14:27:04.652Z,0.90
2018-03-31T14:29:31.910Z,1.20
2018-03-31T14:31:59.155Z,1.20
2018-03-31T14:34:26.513Z,1.17
2018-03-31T14:36:53.653Z,1.07
2018-03-31T14:39:20.913Z,1.30
2018-03-31T14:41:48.166Z,0.90
2018-03-31T14:44:15.423Z,1.20
2018-03-31T14:46:42.573Z,1.17
2018-03-31T14:49:09.822Z,1.33
2018-03-31T14:51:37.073Z,1.97
2018-03-31T14:54:04.326Z,1.30
2018-03-31T14:56:31.580Z,1.03
2018-03-31T14:58:58.756Z,0.90
2018-03-31T15:01:26.003Z,0.77
2018-03-31T15:03:53.236Z,0.93
2018-03-31T15:06:20.384Z,1.03
2018-03-31T15:08:47.534Z,0.90
2018-03-31T15:11:14.680Z,0.90
2018-03-31T15:13:41.935Z,0.70
2018-03-31T15:16:09.086Z,0.70
2018-03-31T15:18:36.228Z,1.07
2018-03-31T15:21:03.487Z,1.00
2018-03-31T15:23:30.640Z,1.10
2018-03-31T15:25:57.786Z,1.40
2018-03-31T15:28:24.945Z,1.63
2018-03-31T15:30:52.091Z,1.40
2018-03-31T15:33:19.338Z,1.53
2018-03-31T15:35:46.898Z,1.17
2018-03-31T15:38:14.049Z,1.23
2018-03-31T15:40:41.232Z,1.00
2018-03-31T15:43:08.453Z,1.03
2018-03-31T15:45:35.702Z,1.23
2018-03-31T15:48:02.849Z,1.37
2018-03-31T15:50:31.031Z,1.23
2018-03-31T15:52:58.285Z,1.03
2018-03-31T15:55:25.533Z,1.10
2018-03-31T15:57:52.786Z,1.00
2018-03-31T16:00:19.923Z,1.27
2018-03-31T16:02:47.085Z,1.80
2018-03-31T16:05:14.337Z,1.20
2018-03-31T16:07:41.497Z,1.03
2018-03-31T16:10:08.753Z,1.00
2018-03-31T16:12:35.888Z,1.00
2018-03-31T16:15:03.035Z,1.47
2018-03-31T16:17:30.295Z,1.20
2018-03-31T16:19:57.489Z,1.20
2018-03-31T16:22:24.901Z,0.97
2018-03-31T16:24:52.354Z,0.83
2018-03-31T16:27:19.614Z,0.93
2018-03-31T16:32:29.474Z,1.00
2018-03-31T16:34:56.626Z,1.70
2018-03-31T16:37:23.877Z,0.97
2018-03-31T16:39:51.131Z,1.23
2018-03-31T16:42:18.383Z,1.50
2018-03-31T16:44:45.531Z,1.90
2018-03-31T16:47:12.785Z,1.30
2018-03-31T16:49:40.046Z,1.12
2018-03-31T16:52:07.180Z,1.03
2018-03-31T16:54:34.439Z,1.50
2018-03-31T16:57:01.622Z,1.50
2018-03-31T16:59:28.841Z,1.50
2018-03-31T17:01:55.976Z,1.07
2018-03-31T17:04:23.244Z,1.00
2018-03-31T17:06:50.496Z,0.80
2018-03-31T17:09:17.748Z,0.90
2018-03-31T17:11:45.002Z,0.80
2018-03-31T17:14:12.255Z,0.93
2018-03-31T17:16:39.393Z,1.30
2018-03-31T17:19:06.559Z,1.70
2018-03-31T17:21:33.805Z,1.30
2018-03-31T17:24:01.124Z,1.30
2018-03-31T17:26:28.310Z,1.10
2018-03-31T17:28:55.567Z,1.30
2018-03-31T17:31:22.720Z,1.50
2018-03-31T17:33:49.915Z,1.60
2018-03-31T17:36:17.115Z,1.80
2018-03-31T17:38:44.475Z,1.60
2018-03-31T17:41:11.829Z,1.20
2018-03-31T17:43:39.080Z,1.10
2018-03-31T17:46:06.331Z,1.60
2018-03-31T17:48:33.539Z,1.10
2018-03-31T17:51:00.784Z,0.80
2018-03-31T17:53:27.948Z,0.80
2018-03-31T17:55:55.239Z,1.30
2018-03-31T17:58:22.431Z,1.30
2018-03-31T18:00:49.750Z,1.57
2018-03-31T18:03:16.883Z,1.13
2018-03-31T18:05:44.145Z,1.67
2018-03-31T18:08:11.387Z,2.77
2018-03-31T18:10:38.648Z,2.93
2018-03-31T18:13:05.798Z,3.00
2018-03-31T18:15:32.871Z,2.50
2018-03-31T18:18:00.200Z,1.80
2018-03-31T18:20:27.359Z,2.03
2018-03-31T18:22:54.548Z,2.13
2018-03-31T18:25:21.855Z,1.80
2018-03-31T18:27:49.012Z,1.50
2018-03-31T18:30:16.323Z,1.40
2018-03-31T18:32:43.509Z,1.17
2018-03-31T18:35:10.660Z,1.00
2018-03-31T18:37:37.811Z,1.70
2018-03-31T18:40:04.967Z,1.50
2018-03-31T18:42:32.108Z,1.50
2018-03-31T18:44:59.417Z,1.70
2018-03-31T18:47:26.821Z,1.60
2018-03-31T18:49:54.075Z,4.00
2018-03-31T18:52:21.331Z,2.67
2018-03-31T18:54:48.640Z,1.60
2018-03-31T18:57:15.933Z,1.80
2018-03-31T18:59:43.161Z,1.47
2018-03-31T19:02:10.547Z,1.87
2018-03-31T19:04:37.714Z,1.40
2018-03-31T19:07:04.898Z,1.60
2018-03-31T19:09:32.117Z,1.40
2018-03-31T19:11:59.347Z,1.20
2018-03-31T19:14:26.599Z,1.10
2018-03-31T19:16:59.488Z,1.13
2018-03-31T19:19:26.623Z,1.30
2018-03-31T19:21:53.885Z,1.50
2018-03-31T19:24:21.137Z,1.50
2018-03-31T19:26:48.391Z,1.33
2018-03-31T19:29:15.700Z,1.37
2018-03-31T19:31:42.893Z,1.50
2018-03-31T19:34:10.075Z,1.57
2018-03-31T19:36:37.398Z,1.87
2018-03-31T19:39:04.549Z,1.90
2018-03-31T19:41:31.856Z,3.50
2018-03-31T19:43:58.942Z,1.70
2018-03-31T19:46:26.204Z,1.80
2018-03-31T19:48:53.353Z,1.80
2018-03-31T19:51:20.496Z,1.57
2018-03-31T19:53:47.910Z,1.67
2018-03-31T19:56:15.008Z,1.60
2018-03-31T19:58:42.152Z,1.70
2018-03-31T20:01:09.305Z,1.73
2018-03-31T20:03:36.561Z,2.50
2018-03-31T20:06:03.816Z,1.97
2018-03-31T20:08:31.067Z,1.70
2018-03-31T20:10:58.224Z,1.60
2018-03-31T20:13:25.468Z,1.83
2018-03-31T20:15:52.720Z,1.43
2018-03-31T20:18:19.973Z,1.50
2018-03-31T20:20:47.401Z,2.10
2018-03-31T20:23:14.686Z,1.60
2018-03-31T20:25:41.939Z,1.60
2018-03-31T20:28:09.186Z,1.97
2018-03-31T20:30:36.389Z,1.90
2018-03-31T20:33:03.488Z,2.03
2018-03-31T20:35:30.701Z,2.20
2018-03-31T20:37:57.886Z,2.70
2018-03-31T20:40:25.149Z,3.70
2018-03-31T20:42:52.293Z,2.50
2018-03-31T20:45:19.750Z,3.27
2018-03-31T20:47:47.003Z,2.90
2018-03-31T20:50:14.254Z,2.30
2018-03-31T20:52:41.508Z,2.40
2018-03-31T20:55:08.647Z,2.00
2018-03-31T20:57:35.902Z,1.80
2018-03-31T21:00:03.165Z,1.57
2018-03-31T21:02:30.313Z,1.60
2018-03-31T21:04:57.564Z,2.23
2018-03-31T21:07:24.764Z,1.97
2018-03-31T21:09:52.076Z,1.67
2018-03-31T21:12:19.323Z,1.80
2018-03-31T21:14:46.465Z,1.63
2018-03-31T21:17:13.728Z,1.80
2018-03-31T21:19:40.873Z,1.87
2018-03-31T21:22:08.127Z,1.97
2018-03-31T21:24:35.274Z,1.90
2018-03-31T21:27:02.529Z,2.20
2018-03-31T21:29:29.678Z,1.73
2018-03-31T21:31:56.934Z,2.10
2018-03-31T21:34:24.187Z,1.93
2018-03-31T21:36:51.329Z,1.60
2018-03-31T21:39:18.592Z,1.80
2018-03-31T21:41:45.839Z,2.13
2018-03-31T21:44:13.197Z,1.70
2018-03-31T21:46:40.447Z,1.67
2018-03-31T21:49:07.650Z,1.87
2018-03-31T21:51:34.939Z,1.90
2018-03-31T21:54:02.155Z,1.50
2018-03-31T21:56:29.355Z,1.90
2018-03-31T21:58:56.608Z,1.60
2018-03-31T22:01:23.882Z,1.77
2018-03-31T22:03:51.226Z,1.50
2018-03-31T22:06:18.470Z,1.57
2018-03-31T22:08:45.726Z,1.43
2018-03-31T22:11:12.969Z,1.40
2018-03-31T22:13:45.714Z,1.50
2018-03-31T22:16:12.788Z,1.57
2018-03-31T22:18:40.053Z,1.83
2018-03-31T22:21:07.407Z,1.60
2018-03-31T22:23:34.660Z,1.40
2018-03-31T22:26:01.916Z,1.90
2018-03-31T22:28:29.164Z,1.60
2018-03-31T22:30:56.316Z,1.73
2018-03-31T22:33:23.573Z,1.20
2018-03-31T22:35:50.817Z,1.43
2018-03-31T22:38:17.997Z,1.43
2018-03-31T22:40:45.225Z,1.50
2018-03-31T22:43:12.434Z,1.60
2018-03-31T22:45:39.624Z,1.33
2018-03-31T22:48:06.878Z,1.40
2018-03-31T22:50:33.950Z,1.43
2018-03-31T22:53:01.176Z,1.90
2018-03-31T22:55:28.389Z,1.90
2018-03-31T22:57:55.682Z,1.17
2018-03-31T23:00:22.831Z,1.17
2018-03-31T23:02:50.214Z,1.30
2018-03-31T23:05:17.439Z,0.97
2018-03-31T23:07:44.701Z,1.50
2018-03-31T23:10:11.945Z,1.20
2018-03-31T23:12:39.086Z,1.20
2018-03-31T23:15:06.244Z,1.33
2018-03-31T23:17:33.496Z,1.43
2018-03-31T23:20:00.663Z,1.20
2018-03-31T23:22:27.898Z,1.23
2018-03-31T23:24:55.155Z,1.30
2018-03-31T23:27:22.297Z,1.40
2018-03-31T23:29:49.552Z,1.20
2018-03-31T23:32:16.866Z,1.10
2018-03-31T23:34:44.106Z,1.23
2018-03-31T23:37:11.413Z,1.50
2018-03-31T23:39:38.664Z,1.50
2018-03-31T23:42:05.917Z,1.23
2018-03-31T23:44:33.174Z,1.17
2018-03-31T23:47:00.319Z,1.27
2018-03-31T23:49:27.574Z,1.23
2018-03-31T23:51:54.824Z,1.27
2018-03-31T23:54:22.077Z,1.30
2018-03-31T23:56:49.335Z,1.47
2018-03-31T23:59:16.529Z,1.30
